AirNav   Duncan Aviation - Near you to keep you flying
 
 546 users online  

14G Fremont Airport
Fremont, Ohio, USA

GOING TO FREMONT?


FAA INFORMATION EFFECTIVE 19 MAY 2022

Location

FAA Identifier: 14G
Lat/Long: 41-19-59.1000N 083-09-40.3000W
41-19.985000N 083-09.671667W
41.3330833,-83.1611944
(estimated)
Elevation: 663.2 ft. / 202.1 m (surveyed)
Variation: 05W (1985)
From city: 2 miles SW of FREMONT, OH
Time zone: UTC -4 (UTC -5 during Standard Time)
Zip code: 43420

Airport Operations

Airport use: Open to the public
Activation date: 06/1962
Control tower: no
ARTCC: CLEVELAND CENTER
FSS: CLEVELAND FLIGHT SERVICE STATION
NOTAMs facility: CLE (NOTAM-D service available)
Attendance: MON-SAT 0900-1600, ALL SUN 1200-1600
Wind indicator: yes
Segmented circle: no
Lights: ACTVT LIRL RWY 09/27 - 5 SLOW CLICKS CTAF.
Beacon: white-green (lighted land airport)
ACTVT ABN - 5 SLOW CLICKS CTAF.

Airport Communications

CTAF/UNICOM: 122.8
TOLEDO APPROACH: 126.1
TOLEDO DEPARTURE: 126.1
WX AWOS-3 at S24 (6 nm E): 119.575 (419-547-6932)
WX AWOS-3 at FZI (13 nm SW): 124.625 (419-436-0053)
WX AWOS-3 at 16G (15 nm S): 127.175 (419-443-1043)
WX AWOS-3 at PCW (17 nm NE): 118.775 (419-734-9955)

Nearby radio navigation aids

VOR radial/distance  VOR name  Freq  Var
FBCr052/35.2FLAG CITY VORTAC108.2002W
MFDr320/38.0MANSFIELD VORTAC108.8003W

 
NDB name  Hdg/Dist  Freq  Var  ID
TIFFIN015/14.526905WTII - .. ..
PORT CLINTON237/17.242307WPCW .--. -.-. .--

Airport Services

Fuel available: 100LL
100LL:AFT HRS FUEL 419-307-3111.
Parking: hangars and tiedowns
Airframe service: MAJOR
Powerplant service: MAJOR

Runway Information

Runway 9/27

Dimensions: 4137 x 60 ft. / 1261 x 18 m
Surface: asphalt, in fair condition
CNTR 31 FT FAIR COND, OUTSIDE 15 FT EACH SIDE POOR COND DUE TO LOOSE STONES.
Weight bearing capacity: 
Single wheel: 13.0
Runway edge lights: low intensity
Runway edge markings: NSTD MKGS, WHITE LINES MARK RWY ENDS. DTHRS NOT MKD.
RUNWAY 9  RUNWAY 27
Latitude: 41-20.053565N41-20.050283N
Longitude: 083-10.044718W083-09.140987W
Elevation: 652.2 ft.660.3 ft.
Traffic pattern: leftleft
Runway heading: 095 magnetic, 090 true275 magnetic, 270 true
Displaced threshold: 126 ft.no
Markings: NSTD, in fair conditionNSTD, in fair condition
Runway end identifier lights: nono
Touchdown point: yes, no lightsyes, no lights
Obstructions: 16 ft. road, 223 ft. from runway, 125 ft. left and right of centerline, 1:1 slope to clear
16 FT ROAD, 120 FT DIST, 250 FT L/R; 10 FT SIGNS, 110 FT DIST, 130 FT R.
65 ft. trees, 400 ft. from runway, 50 ft. right of centerline, 3:1 slope to clear
15 FT DROP OFF EAST END. EAST 330 FT RWY 27 UNUSBL.

Runway 18/36

Dimensions: 2238 x 130 ft. / 682 x 40 m
Surface: turf, in good condition
RUNWAY 18  RUNWAY 36
Latitude: 41-20.046347N41-19.677858N
Longitude: 083-09.815092W083-09.823760W
Elevation: 654.2 ft.656.9 ft.
Traffic pattern: leftleft
Runway heading: 186 magnetic, 181 true006 magnetic, 001 true
Obstructions: 90 ft. trees, 262 ft. from runway, 94 ft. left of centerline, 2:1 slope to clear60 ft. tree, 125 ft. left and right of centerline

Airport Ownership and Management from official FAA records

Ownership: Privately-owned
Owner: FREMONT AIRPORT LLC
365 S SR53
FREMONT, OH 43420
Phone 419-332-8037
Manager: REX DAMSCHRODER
365 S SR53
FREMONT, OH 43420
Phone (419) 307-3111

Airport Operational Statistics

Aircraft based on the field: 63
Single engine airplanes: 55
Multi engine airplanes: 8
    
Aircraft operations: avg 105/day *
57% local general aviation
39% transient general aviation
4% air taxi
<1% military
* for 12-month period ending 28 July 2021

Additional Remarks

RWY 27 ONLY 3390 FT LGTD. 3900 FT PAVEMENT AVBL DALGT HRS.
RWY 27 WHITE LINE MARKS RWY END, 330 FT OF PAVEMENT EAST OF LINE UNSUITABLE FOR ACFT.
DEER & BIRDS ON & INVOF ARPT.
FOR CD CTC TOLEDO APCH AT 419-865-1495.
PUBLD RWY DIMENSIONS DO NOT MATCH PAVEMENT MKGS.

Instrument Procedures

NOTE: All procedures below are presented as PDF files. If you need a reader for these files, you should download the free Adobe Reader.

NOT FOR NAVIGATION. Please procure official charts for flight.
FAA instrument procedures published for use from 19 May 2022 at 0901Z to 16 June 2022 at 0900Z.

 
IAPs - Instrument Approach Procedures
RNAV (GPS) RWY 09   download (187KB)
NOTE: Special Take-Off Minimums/Departure Procedures apply   download (164KB)

Other nearby airports with instrument procedures:

S24 - Sandusky County Regional Airport (6 nm E)
KFZI - Fostoria Metro Airport (13 nm SW)
16G - Seneca County Airport (15 nm S)
KPCW - Erie-Ottawa International Airport (17 nm NE)
KTDZ - Toledo Executive Airport (20 nm NW)
 
Loc | Ops | Rwys | IFR | FBO | Links
Com | Nav | Svcs | Stats | Notes
Area around 14G (Fremont Airport)
 
Road maps at: MapQuest Bing Google
 
Aerial photo
WARNING: Photo may not be current or correct
Aerial photo of 14G (Fremont Airport)
Photo courtesy of AirNav, LLC
Photo taken 21-Jul-2010

Do you have a better or more recent aerial photo of Fremont Airport that you would like to share? If so, please send us your photo.

 
Sectional chart

 
Airport distance calculator
Flying to Fremont Airport? Find the distance to fly.

From to 14G

Sunrise and sunset
Times for 28-May-2022
 Local
(UTC-4)
 Zulu
(UTC)
Morning civil twilight05:3209:32
Sunrise06:0510:05
Sunset20:5500:55
Evening civil twilight21:2801:28

Current date and time
Zulu (UTC)  28-May-2022 10:47:03
Local (UTC-4)  28-May-2022 06:47:03
 
METAR
KPCW 
17nm NE 
281035Z AUTO 36005KT 10SM OVC041 15/13 A2987 RMK AO2
KTDZ 
20nm NW 
280953Z AUTO 33003KT 10SM BKN036 OVC044 16/13 A2988 RMK AO2 SLP114 T01560128
KFDY 
30nm SW 
281019Z AUTO 33003KT 10SM BKN029 OVC035 16/13 A2987 RMK AO2 T01560128
KTOL 
32nm NW 
281025Z 00000KT 10SM BKN026 OVC033 16/12 A2988 RMK AO2 T01610122
KDUH 
33nm NW 
281035Z AUTO 00000KT 10SM BKN030 OVC035 15/15 A2988 RMK AO2 T01460145
TAF
KFDY 
30nm SW 
281018Z 2810/2906 35005KT P6SM SCT015 BKN035 FM281700 VRB03KT P6SM BKN045
KTOL 
32nm NW 
280806Z 2808/2906 36005KT P6SM VCSH SCT015 OVC035 TEMPO 2808/2811 BKN015 FM281100 VRB03KT P6SM BKN025 FM281300 VRB03KT P6SM BKN035 FM281700 VRB03KT P6SM SCT035
NOTAMs
Click for the latest NOTAMs
NOTAMs are issued by the DoD/FAA and will open in a separate window not controlled by AirNav.

 

 
 

FBO, Fuel Providers, and Aircraft Ground Support

  
 Business Name 
 
 Contact 
 
 Services / Description 
 
Fuel Prices
 
Comments
  
Rex Air LLC 419-332-8037
no information available

If you are affiliated with Rex Air LLC and would like to show here your services, contact info, web link, logo, and more, click here
100LL
FS $5.69 
 Updated 17-May-2022
 
   1 read write
FS=Full service
Update Fuel Prices
 

Would you like to see your business listed on this page?

 If your business provides an interesting product or service to pilots, flight crews, aircraft, or users of the Fremont Airport, you should consider listing it here.  To start the listing process, click on the button below
 
Add a business
 

Other Pages about Fremont Airport

Update a link
 
Copyright © AirNav, LLC. All rights reserved. Privacy Policy  Contact